createdAt,value
2023-03-15T00:00:50.303Z,5.00
2023-03-15T00:03:17.057Z,5.10
2023-03-15T00:05:45.254Z,3.40
2023-03-15T00:08:12.382Z,6.03
2023-03-15T00:10:43.261Z,9.57
2023-03-15T00:13:11.928Z,3.13
2023-03-15T00:15:46.367Z,5.40
2023-03-15T00:18:13.853Z,6.83
2023-03-15T00:20:40.645Z,7.43
2023-03-15T00:23:07.561Z,3.27
2023-03-15T00:25:34.560Z,4.90
2023-03-15T00:28:01.292Z,9.83
2023-03-15T00:30:28.112Z,8.37
2023-03-15T00:32:55.366Z,7.07
2023-03-15T00:35:24.035Z,8.33
2023-03-15T00:37:57.413Z,2.50
2023-03-15T00:40:24.307Z,2.23
2023-03-15T00:42:51.327Z,2.70
2023-03-15T00:45:21.124Z,4.80
2023-03-15T00:47:52.688Z,5.10
2023-03-15T00:50:20.535Z,4.50
2023-03-15T00:52:47.510Z,3.67
2023-03-15T00:55:16.744Z,2.03
2023-03-15T00:57:45.505Z,2.70
2023-03-15T01:00:20.592Z,8.40
2023-03-15T01:02:47.889Z,6.83
2023-03-15T01:05:14.761Z,4.57
2023-03-15T01:07:41.869Z,4.03
2023-03-15T01:10:09.084Z,3.00
2023-03-15T01:12:35.913Z,5.37
2023-03-15T01:15:05.986Z,5.60
2023-03-15T01:17:33.022Z,4.10
2023-03-15T01:19:59.964Z,2.70
2023-03-15T01:22:27.007Z,4.20
2023-03-15T01:24:53.953Z,3.20
2023-03-15T01:27:20.756Z,5.23
2023-03-15T01:29:47.513Z,3.00
2023-03-15T01:32:14.654Z,2.70
2023-03-15T01:34:43.218Z,2.73
2023-03-15T01:37:14.773Z,4.37
2023-03-15T01:39:42.327Z,2.63
2023-03-15T01:42:10.313Z,3.50
2023-03-15T01:45:00.065Z,4.53
2023-03-15T01:47:28.269Z,2.67
2023-03-15T01:50:02.564Z,7.07
2023-03-15T01:52:35.429Z,5.90
2023-03-15T01:55:11.187Z,4.63
2023-03-15T01:57:45.103Z,4.70
2023-03-15T02:00:14.431Z,4.13
2023-03-15T02:02:51.108Z,5.23
2023-03-15T02:05:46.240Z,4.43
2023-03-15T02:08:16.788Z,5.70
2023-03-15T02:10:49.465Z,3.03
2023-03-15T02:13:19.839Z,8.40
2023-03-15T02:15:46.913Z,6.63
2023-03-15T02:18:14.599Z,3.57
2023-03-15T02:20:53.621Z,5.50
2023-03-15T02:23:22.558Z,3.93
2023-03-15T02:26:16.944Z,4.80
2023-03-15T02:28:44.550Z,6.13
2023-03-15T02:31:11.666Z,3.40
2023-03-15T02:33:47.640Z,3.47
2023-03-15T02:36:19.762Z,4.50
2023-03-15T02:38:47.816Z,5.50
2023-03-15T02:41:19.579Z,3.83
2023-03-15T02:43:49.816Z,4.03
2023-03-15T02:46:17.653Z,3.93
2023-03-15T02:48:46.886Z,7.67
2023-03-15T02:51:21.370Z,8.23
2023-03-15T02:53:49.093Z,5.17
2023-03-15T02:56:16.753Z,4.37
2023-03-15T02:58:46.749Z,2.47
2023-03-15T03:01:15.583Z,6.93
2023-03-15T03:03:43.992Z,3.17
2023-03-15T03:06:12.256Z,3.67
2023-03-15T03:08:39.110Z,7.57
2023-03-15T03:11:06.556Z,4.70
2023-03-15T03:13:33.358Z,2.63
2023-03-15T03:16:00.352Z,3.07
2023-03-15T03:18:28.494Z,4.67
2023-03-15T03:20:59.489Z,7.67
2023-03-15T03:23:26.863Z,7.33
2023-03-15T03:25:55.359Z,2.27
2023-03-15T03:28:27.735Z,3.87
2023-03-15T03:30:55.884Z,4.13
2023-03-15T03:33:23.158Z,7.43
2023-03-15T03:35:50.471Z,8.47
2023-03-15T03:38:17.793Z,4.93
2023-03-15T03:40:46.351Z,3.47
2023-03-15T03:43:13.111Z,3.20
2023-03-15T03:45:39.869Z,5.00
2023-03-15T03:48:06.741Z,5.90
2023-03-15T03:50:33.592Z,4.47
2023-03-15T03:53:00.580Z,8.33
2023-03-15T03:55:27.320Z,4.70
2023-03-15T03:57:54.076Z,4.23
2023-03-15T04:00:21.925Z,7.07
2023-03-15T04:02:48.763Z,5.77
2023-03-15T04:05:15.836Z,8.13
2023-03-15T04:07:44.802Z,9.47
2023-03-15T04:10:15.097Z,5.77
2023-03-15T04:12:43.399Z,8.87
2023-03-15T04:15:11.967Z,6.23
2023-03-15T04:17:39.461Z,9.23
2023-03-15T04:20:07.977Z,5.77
2023-03-15T04:22:35.266Z,6.23
2023-03-15T04:25:02.388Z,5.83
2023-03-15T04:27:31.073Z,6.63
2023-03-15T04:29:58.082Z,7.33
2023-03-15T04:32:24.862Z,7.63
2023-03-15T04:34:51.918Z,8.97
2023-03-15T04:37:19.316Z,9.67
2023-03-15T04:39:46.348Z,3.70
2023-03-15T04:42:13.105Z,7.07
2023-03-15T04:44:40.148Z,7.77
2023-03-15T04:47:06.990Z,6.43
2023-03-15T04:49:34.083Z,6.03
2023-03-15T04:52:01.127Z,5.83
2023-03-15T04:54:28.184Z,6.47
2023-03-15T04:56:54.956Z,6.77
2023-03-15T04:59:22.006Z,4.10
2023-03-15T05:01:49.062Z,8.77
2023-03-15T05:04:16.724Z,5.70
2023-03-15T05:06:43.441Z,7.20
2023-03-15T05:09:19.515Z,5.80
2023-03-15T05:11:46.720Z,7.50
2023-03-15T05:14:13.888Z,8.17
2023-03-15T05:16:41.372Z,5.83
2023-03-15T05:19:08.202Z,5.43
2023-03-15T05:21:34.985Z,8.50
2023-03-15T05:24:02.009Z,4.30
2023-03-15T05:26:28.993Z,4.83
2023-03-15T05:28:55.770Z,4.30
2023-03-15T05:31:22.828Z,6.87
2023-03-15T05:33:49.691Z,8.80
2023-03-15T05:36:17.517Z,4.27
2023-03-15T05:38:45.670Z,7.03
2023-03-15T05:41:12.796Z,4.00
2023-03-15T05:43:39.745Z,6.33
2023-03-15T05:46:06.747Z,9.97
2023-03-15T05:48:33.467Z,6.43
2023-03-15T05:51:00.420Z,7.87
2023-03-15T05:53:35.596Z,5.47
2023-03-15T05:56:02.729Z,8.63
2023-03-15T05:58:29.423Z,7.93
2023-03-15T06:00:56.228Z,8.57
2023-03-15T06:03:23.023Z,11.83
2023-03-15T06:05:49.985Z,6.80
2023-03-15T06:08:16.703Z,10.37
2023-03-15T06:10:43.646Z,5.93
2023-03-15T06:13:10.420Z,9.47
2023-03-15T06:15:37.136Z,9.60
2023-03-15T06:18:04.817Z,6.40
2023-03-15T06:20:32.347Z,4.67
2023-03-15T06:22:59.322Z,6.33
2023-03-15T06:25:26.479Z,6.67
2023-03-15T06:27:53.453Z,6.57
2023-03-15T06:30:20.608Z,7.03
2023-03-15T06:32:47.688Z,5.33
2023-03-15T06:35:14.520Z,3.93
2023-03-15T06:37:41.943Z,2.97
2023-03-15T06:40:11.129Z,7.70
2023-03-15T06:42:39.025Z,6.40
2023-03-15T06:45:08.117Z,6.63
2023-03-15T06:47:35.233Z,3.60
2023-03-15T06:50:02.421Z,3.13
2023-03-15T06:52:29.540Z,5.03
2023-03-15T06:54:56.596Z,5.00
2023-03-15T06:57:23.695Z,4.77
2023-03-15T06:59:50.865Z,5.83
2023-03-15T07:02:19.332Z,6.00
2023-03-15T07:04:46.135Z,5.53
2023-03-15T07:07:13.301Z,5.30
2023-03-15T07:09:40.877Z,3.57
2023-03-15T07:12:08.307Z,5.10
2023-03-15T07:14:38.386Z,3.80
2023-03-15T07:17:05.169Z,5.03
2023-03-15T07:19:31.894Z,6.57
2023-03-15T07:21:58.870Z,5.60
2023-03-15T07:24:25.594Z,7.47
2023-03-15T07:26:56.484Z,8.10
2023-03-15T07:29:26.414Z,7.77
2023-03-15T07:31:53.254Z,8.53
2023-03-15T07:34:19.968Z,4.77
2023-03-15T07:36:47.016Z,4.57
2023-03-15T07:39:14.173Z,4.70
2023-03-15T07:41:40.867Z,5.20
2023-03-15T07:44:08.076Z,5.27
2023-03-15T07:46:34.814Z,7.07
2023-03-15T07:49:01.708Z,5.10
2023-03-15T07:51:28.637Z,4.00
2023-03-15T07:53:55.577Z,5.37
2023-03-15T07:56:22.531Z,3.43
2023-03-15T07:58:49.535Z,3.57
2023-03-15T08:01:16.430Z,11.80
2023-03-15T08:03:43.164Z,6.27
2023-03-15T08:06:09.989Z,7.80
2023-03-15T08:08:36.662Z,4.20
2023-03-15T08:11:06.008Z,6.03
2023-03-15T08:13:33.855Z,7.37
2023-03-15T08:16:00.651Z,5.40
2023-03-15T08:18:29.056Z,8.17
2023-03-15T08:20:56.342Z,4.90
2023-03-15T08:23:23.590Z,4.23
2023-03-15T08:25:50.418Z,5.23
2023-03-15T08:28:17.787Z,5.10
2023-03-15T08:30:44.810Z,5.33
2023-03-15T08:33:12.716Z,5.23
2023-03-15T08:35:39.889Z,6.17
2023-03-15T08:38:06.660Z,6.03
2023-03-15T08:40:33.384Z,7.33
2023-03-15T08:43:00.271Z,4.20
2023-03-15T08:45:32.967Z,4.70
2023-03-15T08:48:01.207Z,4.20
2023-03-15T08:50:31.853Z,3.50
2023-03-15T08:52:58.655Z,3.30
2023-03-15T08:55:25.381Z,5.23
2023-03-15T08:57:52.449Z,3.57
2023-03-15T09:00:22.946Z,4.20
2023-03-15T09:02:52.104Z,4.67
2023-03-15T09:05:20.127Z,3.43
2023-03-15T09:07:47.688Z,5.93
2023-03-15T09:10:16.384Z,8.70
2023-03-15T09:12:44.716Z,4.07
2023-03-15T09:15:12.075Z,5.50
2023-03-15T09:17:39.737Z,6.43
2023-03-15T09:20:12.593Z,4.80
2023-03-15T09:22:39.934Z,6.47
2023-03-15T09:25:07.269Z,4.57
2023-03-15T09:27:34.725Z,7.77
2023-03-15T09:30:02.147Z,7.13
2023-03-15T09:32:29.032Z,5.83
2023-03-15T09:34:55.771Z,6.00
2023-03-15T09:37:22.882Z,6.27
2023-03-15T09:39:49.585Z,4.77
2023-03-15T09:42:26.617Z,6.27
2023-03-15T09:45:21.549Z,5.83
2023-03-15T09:47:54.248Z,5.30
2023-03-15T09:54:21.116Z,6.93
2023-03-15T09:57:03.237Z,4.73
2023-03-15T09:59:34.507Z,4.97
2023-03-15T10:02:29.845Z,6.40
2023-03-15T10:05:02.630Z,7.10
2023-03-15T10:07:29.380Z,5.60
2023-03-15T10:09:58.958Z,4.80
2023-03-15T10:12:31.486Z,4.37
2023-03-15T10:15:22.341Z,5.23
2023-03-15T10:18:07.145Z,6.73
2023-03-15T10:20:39.633Z,4.57
2023-03-15T10:23:30.836Z,4.83
2023-03-15T10:26:08.759Z,7.27
2023-03-15T10:28:37.655Z,5.60
2023-03-15T10:31:22.480Z,6.73
2023-03-15T10:33:57.213Z,8.00
2023-03-15T10:36:25.468Z,9.60
2023-03-15T10:38:52.451Z,8.23
2023-03-15T10:41:50.501Z,7.80
2023-03-15T10:44:26.384Z,5.07
2023-03-15T10:47:24.060Z,7.47
2023-03-15T10:49:59.239Z,5.27
2023-03-15T10:52:34.920Z,6.73
2023-03-15T10:55:14.512Z,4.53
2023-03-15T10:57:54.295Z,4.27
2023-03-15T11:00:24.243Z,5.13
2023-03-15T11:03:01.289Z,3.43
2023-03-15T11:05:41.941Z,5.37
2023-03-15T11:08:14.237Z,4.83
2023-03-15T11:10:41.890Z,3.40
2023-03-15T11:13:21.125Z,3.47
2023-03-15T11:16:04.503Z,3.93
2023-03-15T11:18:35.775Z,3.10
2023-03-15T11:21:08.255Z,3.07
2023-03-15T11:23:38.521Z,5.10
2023-03-15T11:26:06.290Z,3.77
2023-03-15T11:28:36.886Z,1.60
2023-03-15T11:31:05.487Z,2.33
2023-03-15T11:33:37.073Z,1.97
2023-03-15T11:36:11.212Z,1.60
2023-03-15T11:38:44.120Z,2.27
2023-03-15T11:41:36.914Z,1.80
2023-03-15T11:44:33.229Z,1.93
2023-03-15T11:47:06.353Z,2.07
2023-03-15T11:49:52.968Z,1.50
2023-03-15T11:52:24.283Z,1.50
2023-03-15T11:54:54.411Z,1.87
2023-03-15T11:57:46.986Z,2.60
2023-03-15T12:00:40.186Z,1.77
2023-03-15T12:03:29.559Z,1.50
2023-03-15T12:06:05.967Z,2.07
2023-03-15T12:08:35.029Z,4.40
2023-03-15T12:11:02.717Z,2.77
2023-03-15T12:13:31.929Z,1.77
2023-03-15T12:15:59.904Z,1.90
2023-03-15T12:18:31.370Z,2.47
2023-03-15T12:21:12.850Z,1.50
2023-03-15T12:23:47.104Z,1.70
2023-03-15T12:26:40.163Z,2.67
2023-03-15T12:29:23.403Z,2.10
2023-03-15T12:32:13.688Z,2.47
2023-03-15T12:34:52.642Z,1.60
2023-03-15T12:37:39.666Z,2.20
2023-03-15T12:40:15.490Z,2.73
2023-03-15T12:42:42.181Z,1.90
2023-03-15T12:45:18.069Z,2.10
2023-03-15T12:47:51.438Z,1.60
2023-03-15T12:50:37.030Z,2.03
2023-03-15T12:53:15.986Z,1.60
2023-03-15T12:55:43.896Z,3.83
2023-03-15T12:58:13.150Z,2.97
2023-03-15T13:00:42.770Z,15.17
2023-03-15T13:03:20.306Z,1.80
2023-03-15T13:06:08.944Z,3.53
2023-03-15T13:08:54.523Z,15.17
2023-03-15T13:11:51.018Z,2.13
2023-03-15T13:14:31.580Z,4.50
2023-03-15T13:17:17.743Z,4.20
2023-03-15T13:19:55.126Z,2.03
2023-03-15T13:22:55.561Z,3.10
2023-03-15T13:25:34.459Z,4.37
2023-03-15T13:28:22.850Z,2.07
2023-03-15T13:30:55.101Z,2.00
2023-03-15T13:33:26.864Z,4.10
2023-03-15T13:36:01.374Z,1.80
2023-03-15T13:38:40.923Z,1.83
2023-03-15T13:41:30.352Z,1.90
2023-03-15T13:44:02.244Z,3.10
2023-03-15T13:46:30.912Z,1.80
2023-03-15T13:49:00.733Z,2.10
2023-03-15T13:51:34.835Z,30.47
2023-03-15T13:54:04.915Z,3.80
2023-03-15T13:56:46.901Z,3.33
2023-03-15T13:59:16.206Z,2.53
2023-03-15T14:01:43.390Z,2.33
2023-03-15T14:04:16.760Z,8.23
2023-03-15T14:06:45.853Z,5.27
2023-03-15T14:09:21.552Z,9.43
2023-03-15T14:12:02.518Z,3.43
2023-03-15T14:14:31.512Z,4.20
2023-03-15T14:17:05.792Z,5.30
2023-03-15T14:19:35.772Z,2.70
2023-03-15T14:22:12.671Z,2.93
2023-03-15T14:24:42.311Z,5.87
2023-03-15T14:27:19.238Z,2.27
2023-03-15T14:29:55.145Z,5.50
2023-03-15T14:32:28.649Z,4.30
2023-03-15T14:35:18.405Z,4.40
2023-03-15T14:37:47.957Z,4.43
2023-03-15T14:40:22.649Z,2.50
2023-03-15T14:42:50.726Z,6.57
2023-03-15T14:45:18.824Z,5.90
2023-03-15T14:47:58.798Z,7.10
2023-03-15T14:50:29.467Z,3.60
2023-03-15T14:52:58.356Z,3.03
2023-03-15T14:55:30.688Z,4.17
2023-03-15T14:57:57.466Z,4.10
2023-03-15T15:00:24.792Z,3.23
2023-03-15T15:02:54.433Z,4.40
2023-03-15T15:05:27.664Z,4.63
2023-03-15T15:08:07.406Z,2.80
2023-03-15T15:10:34.889Z,6.13
2023-03-15T15:13:06.880Z,4.60
2023-03-15T15:15:47.479Z,4.37
2023-03-15T15:18:18.644Z,2.50
2023-03-15T15:20:46.411Z,2.77
2023-03-15T15:23:21.094Z,3.30
2023-03-15T15:25:50.280Z,7.83
2023-03-15T15:28:31.232Z,3.47
2023-03-15T15:31:01.418Z,3.50
2023-03-15T15:33:28.263Z,6.60
2023-03-15T15:35:56.684Z,32.30
2023-03-15T15:38:34.814Z,2.80
2023-03-15T15:41:01.668Z,4.03
2023-03-15T15:43:29.489Z,3.93
2023-03-15T15:45:57.155Z,4.07
2023-03-15T15:48:23.988Z,13.93
2023-03-15T15:50:51.369Z,17.13
2023-03-15T15:53:18.451Z,2.40
2023-03-15T15:55:46.172Z,4.23
2023-03-15T15:58:14.104Z,8.60
2023-03-15T16:00:40.850Z,4.80
2023-03-15T16:03:16.444Z,5.33
2023-03-15T16:05:43.425Z,9.27
2023-03-15T16:08:22.992Z,2.77
2023-03-15T16:10:50.286Z,2.80
2023-03-15T16:13:17.415Z,5.27
2023-03-15T16:15:44.256Z,2.70
2023-03-15T16:18:12.660Z,2.77
2023-03-15T16:20:41.041Z,2.63
2023-03-15T16:23:15.534Z,2.43
2023-03-15T16:25:50.856Z,2.70
2023-03-15T16:28:18.038Z,2.00
2023-03-15T16:30:46.819Z,2.17
2023-03-15T16:33:19.347Z,1.20
2023-03-15T16:35:48.664Z,1.57
2023-03-15T16:38:17.489Z,1.50
2023-03-15T16:40:45.716Z,2.00
2023-03-15T16:43:13.810Z,1.60
2023-03-15T16:45:41.092Z,1.70
2023-03-15T16:48:09.040Z,2.43
2023-03-15T16:50:37.310Z,1.80
2023-03-15T16:53:07.738Z,2.93
2023-03-15T16:55:35.315Z,3.60
2023-03-15T16:58:04.439Z,1.63
2023-03-15T17:00:32.014Z,1.37
2023-03-15T17:03:01.812Z,1.27
2023-03-15T17:05:28.961Z,1.33
2023-03-15T17:07:55.967Z,1.70
2023-03-15T17:10:25.622Z,3.53
2023-03-15T17:12:53.779Z,6.70
2023-03-15T17:15:24.055Z,5.90
2023-03-15T17:17:51.904Z,6.17
2023-03-15T17:20:22.390Z,6.53
2023-03-15T17:22:51.243Z,8.40
2023-03-15T17:25:19.196Z,9.30
2023-03-15T17:27:48.566Z,11.13
2023-03-15T17:30:20.659Z,10.50
2023-03-15T17:32:48.093Z,9.93
2023-03-15T17:35:16.022Z,10.67
2023-03-15T17:38:14.773Z,9.03
2023-03-15T17:40:42.685Z,6.40
2023-03-15T17:43:15.404Z,6.73
2023-03-15T17:45:42.743Z,5.63
2023-03-15T17:48:09.852Z,6.73
2023-03-15T17:50:37.722Z,7.13
2023-03-15T17:53:21.259Z,6.73
2023-03-15T17:55:49.198Z,8.60
2023-03-15T17:58:27.488Z,13.17
2023-03-15T18:00:55.135Z,13.63
2023-03-15T18:03:25.385Z,12.27
2023-03-15T18:05:52.415Z,9.07
2023-03-15T18:08:21.370Z,7.73
2023-03-15T18:10:49.918Z,12.57
2023-03-15T18:13:19.847Z,12.87
2023-03-15T18:15:47.572Z,12.67
2023-03-15T18:18:14.378Z,12.03
2023-03-15T18:20:41.340Z,16.43
2023-03-15T18:23:10.267Z,13.17
2023-03-15T18:25:37.028Z,14.57
2023-03-15T18:28:03.896Z,15.00
2023-03-15T18:30:31.469Z,15.87
2023-03-15T18:32:59.762Z,17.47
2023-03-15T18:35:31.003Z,16.67
2023-03-15T18:37:58.163Z,20.43
2023-03-15T18:40:29.220Z,20.90
2023-03-15T18:42:57.508Z,49.20
2023-03-15T18:45:25.875Z,26.20
2023-03-15T18:47:53.025Z,14.63
2023-03-15T18:50:20.626Z,11.47
2023-03-15T18:52:47.792Z,10.17
2023-03-15T18:55:16.656Z,7.67
2023-03-15T18:57:46.397Z,8.50
2023-03-15T19:00:17.036Z,7.83
2023-03-15T19:02:46.238Z,13.23
2023-03-15T19:05:14.480Z,14.93
2023-03-15T19:07:42.006Z,12.10
2023-03-15T19:10:16.196Z,15.00
2023-03-15T19:12:45.157Z,12.37
2023-03-15T19:15:15.231Z,10.60
2023-03-15T19:17:42.286Z,11.27
2023-03-15T19:20:12.274Z,15.17
2023-03-15T19:22:39.664Z,13.00
2023-03-15T19:25:07.138Z,11.27
2023-03-15T19:27:34.104Z,10.37
2023-03-15T19:30:00.857Z,9.83
2023-03-15T19:32:29.996Z,5.53
2023-03-15T19:34:57.137Z,8.97
2023-03-15T19:37:24.301Z,10.87
2023-03-15T19:39:51.367Z,10.13
2023-03-15T19:42:18.073Z,11.27
2023-03-15T19:44:47.616Z,9.17
2023-03-15T19:47:14.482Z,8.90
2023-03-15T19:49:41.346Z,5.63
2023-03-15T19:52:08.341Z,4.33
2023-03-15T19:54:35.255Z,6.93
2023-03-15T19:57:01.962Z,7.47
2023-03-15T19:59:28.739Z,7.77
2023-03-15T20:01:55.602Z,8.50
2023-03-15T20:04:22.423Z,26.83
2023-03-15T20:06:49.161Z,23.20
2023-03-15T20:09:16.138Z,12.93
2023-03-15T20:11:43.082Z,11.27
2023-03-15T20:14:10.081Z,8.57
2023-03-15T20:16:36.833Z,5.87
2023-03-15T20:19:03.778Z,6.70
2023-03-15T20:21:30.591Z,7.70
2023-03-15T20:23:57.343Z,5.90
2023-03-15T20:26:25.214Z,7.37
2023-03-15T20:28:52.223Z,11.33
2023-03-15T20:31:19.380Z,11.60
2023-03-15T20:33:49.752Z,7.27
2023-03-15T20:36:17.661Z,7.97
2023-03-15T20:38:45.720Z,7.07
2023-03-15T20:41:15.187Z,11.67
2023-03-15T20:43:57.475Z,9.73
2023-03-15T20:46:35.587Z,6.33
2023-03-15T20:49:02.402Z,7.47
2023-03-15T20:51:29.205Z,5.40
2023-03-15T20:53:56.227Z,4.40
2023-03-15T20:56:23.284Z,4.60
2023-03-15T20:58:50.328Z,3.10
2023-03-15T21:01:17.439Z,4.70
2023-03-15T21:03:45.526Z,3.73
2023-03-15T21:06:13.527Z,3.70
2023-03-15T21:08:42.647Z,5.27
2023-03-15T21:11:09.715Z,4.07
2023-03-15T21:13:36.772Z,4.93
2023-03-15T21:16:05.140Z,4.63
2023-03-15T21:18:33.835Z,4.47
2023-03-15T21:21:07.770Z,5.37
2023-03-15T21:23:36.052Z,4.70
2023-03-15T21:26:08.260Z,5.73
2023-03-15T21:28:35.404Z,3.87
2023-03-15T21:31:02.394Z,5.07
2023-03-15T21:33:31.169Z,10.73
2023-03-15T21:35:59.587Z,21.80
2023-03-15T21:38:27.779Z,11.40
2023-03-15T21:41:01.041Z,27.87
2023-03-15T21:43:32.502Z,21.07
2023-03-15T21:46:01.596Z,18.17
2023-03-15T21:48:28.489Z,11.37
2023-03-15T21:50:55.224Z,12.77
2023-03-15T21:53:22.128Z,16.40
2023-03-15T21:55:49.286Z,9.07
2023-03-15T21:58:16.230Z,13.63
2023-03-15T22:00:43.099Z,33.27
2023-03-15T22:03:10.169Z,17.33
2023-03-15T22:05:36.962Z,8.37
2023-03-15T22:08:03.761Z,8.30
2023-03-15T22:10:30.529Z,6.83
2023-03-15T22:12:57.526Z,5.60
2023-03-15T22:15:24.345Z,7.57
2023-03-15T22:17:51.515Z,12.37
2023-03-15T22:20:18.751Z,4.87
2023-03-15T22:22:47.335Z,12.93
2023-03-15T22:25:14.695Z,15.73
2023-03-15T22:27:41.905Z,24.33
2023-03-15T22:30:10.086Z,18.73
2023-03-15T22:32:37.242Z,26.17
2023-03-15T22:35:04.371Z,21.40
2023-03-15T22:37:34.249Z,6.37
2023-03-15T22:40:00.972Z,7.30
2023-03-15T22:42:28.025Z,7.80
2023-03-15T22:44:54.738Z,7.17
2023-03-15T22:47:21.533Z,8.97
2023-03-15T22:49:49.093Z,11.30
2023-03-15T22:52:15.801Z,14.87
2023-03-15T22:54:43.574Z,6.77
2023-03-15T22:57:11.664Z,6.57
2023-03-15T22:59:39.148Z,6.20
2023-03-15T23:02:06.322Z,7.07
2023-03-15T23:04:33.984Z,9.07
2023-03-15T23:07:01.942Z,4.13
2023-03-15T23:09:28.804Z,6.23
2023-03-15T23:11:55.573Z,5.43
2023-03-15T23:14:22.622Z,6.20
2023-03-15T23:16:49.586Z,5.47
2023-03-15T23:19:16.351Z,6.07
2023-03-15T23:21:43.369Z,5.03
2023-03-15T23:24:10.203Z,4.80
2023-03-15T23:26:39.618Z,4.27
2023-03-15T23:29:11.011Z,7.40
2023-03-15T23:31:38.969Z,3.80
2023-03-15T23:34:07.161Z,4.77
2023-03-15T23:36:34.894Z,3.77
2023-03-15T23:39:01.649Z,4.03
2023-03-15T23:41:28.434Z,6.10
2023-03-15T23:43:55.392Z,7.13
2023-03-15T23:46:24.526Z,3.60
2023-03-15T23:48:52.464Z,3.63
2023-03-15T23:51:19.998Z,7.00
2023-03-15T23:53:46.949Z,4.33
2023-03-15T23:56:14.224Z,6.17
2023-03-15T23:58:41.221Z,4.00
